Terminal Aerodrome Forecast
Issued by NWS Pueblo, CO

Home | Current Version | Previous Version | Text Only | Print | Product List | Glossary On
Versions: 1 2 3 4 5 6 7 8 9 10 11 12 13 14 15 16 17 18 19 20 21 22 23 24 25 26 27 28 29 30 31 32 33 34 35 36 37 38 39 40 41 42 43 44 45 46 47 48 49 50
000
FTUS45 KPUB 231416 AAA
TAFCOS
TAF AMD
KCOS 231416Z 2314/2412 VRB05KT P6SM BKN015 BKN050
     FM231600 13009KT P6SM SCT050 SCT200
     FM231800 17012G24KT P6SM VCTS SCT040CB BKN080
     FM240300 35010KT P6SM FEW040 SCT100
     FM241000 VRB05KT P6SM FEW200=

USA.gov is the U.S. government's official web portal to all federal, state and local government web resources and services.